Capitol Logistics 3256


KEYW
Key West International Airport
Key West, Florida, US
KMTH
The Florida Keys Marathon International Airport
Marathon, Florida, US

Activity Log

Date Flight Route Aircraft Duration
No Flights Yet

Route Details

Aircraft Information
Primary: Saab 340AF
Backup: Not Available
Route Data
Distance: 40nm
Sched. Duration: 0h 45m
Avg. Duration: 0h 00m (-45m)
Times Flown: 0
Recm'd Route: VPKOE
Planned Altitude: 3,500ft
Origin Wx: KEYW 271626Z 36015G22KT 10SM BKN027 OVC032 20/14 A3017 RMK AO2 T02000139
Dest. Wx: KMTH 271553Z AUTO 36013G19KT 10SM OVC028 19/12 A3016 RMK AO2 SLP212 T01890122
Notes:

Financial History
Total Freight: 0lbs
Average Load: 0lbs/flt
Fuel Used: 0lbs
Avg. Fuel Used: 0lbs/flt
Fuel Expense: $0
Avg. Fuel Expense: $0
Avg. Fuel Cost: $0/lbs
Total Gross Income: $0
Pilot Pay: $0
Total Expenses: $0
Total Revenue: $0
Average Revenue: $0